createdAt,value
2017-07-09T00:00:34.872Z,992.27
2017-07-09T00:01:34.905Z,992.25
2017-07-09T00:02:34.938Z,992.27
2017-07-09T00:03:34.969Z,992.27
2017-07-09T00:04:35.000Z,992.26
2017-07-09T00:05:35.029Z,992.26
2017-07-09T00:06:35.062Z,992.25
2017-07-09T00:07:35.084Z,992.29
2017-07-09T00:08:35.123Z,992.28
2017-07-09T00:09:35.157Z,992.28
2017-07-09T00:10:35.182Z,992.24
2017-07-09T00:11:35.217Z,992.25
2017-07-09T00:12:35.246Z,992.28
2017-07-09T00:13:35.275Z,992.22
2017-07-09T00:14:35.612Z,992.22
2017-07-09T00:15:35.340Z,992.22
2017-07-09T00:16:35.370Z,992.26
2017-07-09T00:17:35.398Z,992.23
2017-07-09T00:18:35.436Z,992.24
2017-07-09T00:19:35.719Z,992.27
2017-07-09T00:20:35.497Z,992.27
2017-07-09T00:21:35.530Z,992.3
2017-07-09T00:22:35.558Z,992.29
2017-07-09T00:23:35.591Z,992.29
2017-07-09T00:24:35.871Z,992.24
2017-07-09T00:25:35.653Z,992.22
2017-07-09T00:26:35.681Z,992.23
2017-07-09T00:27:35.714Z,992.19
2017-07-09T00:28:35.747Z,992.17
2017-07-09T00:29:36.033Z,992.21
2017-07-09T00:30:35.805Z,992.21
2017-07-09T00:31:35.842Z,992.25
2017-07-09T00:32:35.871Z,992.26
2017-07-09T00:33:35.903Z,992.27
2017-07-09T00:34:36.184Z,992.3
2017-07-09T00:35:35.965Z,992.31
2017-07-09T00:36:35.995Z,992.3
2017-07-09T00:37:36.026Z,992.31
2017-07-09T00:38:36.056Z,992.32
2017-07-09T00:39:36.388Z,992.33
2017-07-09T00:40:36.118Z,992.31
2017-07-09T00:41:36.149Z,992.31
2017-07-09T00:42:36.186Z,992.34
2017-07-09T00:43:36.212Z,992.33
2017-07-09T00:44:36.246Z,992.32
2017-07-09T00:45:36.274Z,992.32
2017-07-09T00:46:36.305Z,992.31
2017-07-09T00:47:36.335Z,992.32
2017-07-09T00:48:36.368Z,992.31
2017-07-09T00:49:36.401Z,992.26
2017-07-09T00:50:36.430Z,992.22
2017-07-09T00:51:36.466Z,992.24
2017-07-09T00:52:36.495Z,992.28
2017-07-09T00:53:36.526Z,992.29
2017-07-09T00:54:36.552Z,992.33
2017-07-09T00:55:36.584Z,992.37
2017-07-09T00:56:36.615Z,992.39
2017-07-09T00:57:36.648Z,992.39
2017-07-09T00:58:36.677Z,992.38
2017-07-09T00:59:36.709Z,992.34
2017-07-09T01:00:36.737Z,992.31
2017-07-09T01:01:36.772Z,992.32
2017-07-09T01:02:36.803Z,992.33
2017-07-09T01:03:36.832Z,992.32
2017-07-09T01:04:36.865Z,992.27
2017-07-09T01:05:36.895Z,992.24
2017-07-09T01:06:36.927Z,992.22
2017-07-09T01:07:36.955Z,992.17
2017-07-09T01:08:36.989Z,992.11
2017-07-09T01:09:37.013Z,992.05
2017-07-09T01:10:37.049Z,992.01
2017-07-09T01:11:37.079Z,992
2017-07-09T01:12:37.111Z,992.01
2017-07-09T01:13:37.141Z,992.02
2017-07-09T01:14:37.172Z,992.01
2017-07-09T01:15:37.206Z,992.07
2017-07-09T01:16:37.235Z,992.05
2017-07-09T01:17:37.268Z,992.03
2017-07-09T01:18:37.299Z,991.99
2017-07-09T01:19:37.331Z,991.95
2017-07-09T01:20:37.358Z,991.89
2017-07-09T01:21:37.387Z,991.9
2017-07-09T01:22:37.417Z,991.9
2017-07-09T01:23:37.453Z,991.92
2017-07-09T01:24:37.482Z,991.91
2017-07-09T01:25:37.515Z,991.91
2017-07-09T01:26:37.545Z,991.95
2017-07-09T01:27:37.577Z,991.92
2017-07-09T01:28:37.607Z,991.92
2017-07-09T01:29:37.638Z,991.92
2017-07-09T01:30:37.667Z,991.93
2017-07-09T01:31:37.700Z,991.94
2017-07-09T01:32:37.729Z,991.98
2017-07-09T01:33:37.763Z,991.99
2017-07-09T01:34:37.791Z,991.98
2017-07-09T01:35:37.818Z,991.98
2017-07-09T01:36:37.852Z,991.97
2017-07-09T01:37:37.881Z,991.99
2017-07-09T01:38:37.913Z,992.05
2017-07-09T01:39:37.942Z,992.08
2017-07-09T01:40:37.976Z,992.1
2017-07-09T01:41:38.008Z,992.12
2017-07-09T01:42:38.037Z,992.1
2017-07-09T01:43:38.070Z,992.15
2017-07-09T01:44:38.103Z,992.14
2017-07-09T01:45:38.132Z,992.16
2017-07-09T01:46:38.161Z,992.2
2017-07-09T01:47:38.193Z,992.19
2017-07-09T01:48:38.227Z,992.18
2017-07-09T01:49:38.253Z,992.17
2017-07-09T01:50:38.285Z,992.13
2017-07-09T01:51:38.314Z,992.15
2017-07-09T01:52:38.350Z,992.14
2017-07-09T01:53:38.378Z,992.08
2017-07-09T01:54:38.411Z,992.09
2017-07-09T01:55:38.440Z,992.13
2017-07-09T01:56:38.473Z,992.17
2017-07-09T01:57:38.503Z,992.18
2017-07-09T01:58:38.535Z,992.24
2017-07-09T01:59:38.563Z,992.25
2017-07-09T02:00:38.592Z,992.22
2017-07-09T02:01:38.624Z,992.19
2017-07-09T02:02:38.659Z,992.19
2017-07-09T02:03:38.687Z,992.11
2017-07-09T02:04:38.720Z,992.11
2017-07-09T02:05:39.000Z,992.08
2017-07-09T02:06:38.781Z,992.09
2017-07-09T02:07:38.814Z,992.05
2017-07-09T02:08:38.844Z,992.05
2017-07-09T02:09:38.875Z,992.02
2017-07-09T02:10:39.203Z,992.05
2017-07-09T02:11:38.937Z,992.02
2017-07-09T02:12:38.966Z,992.01
2017-07-09T02:13:38.997Z,991.99
2017-07-09T02:14:39.025Z,991.99
2017-07-09T02:15:39.356Z,991.98
2017-07-09T02:16:39.090Z,992
2017-07-09T02:17:39.116Z,992.03
2017-07-09T02:18:39.147Z,992.01
2017-07-09T02:19:39.172Z,992.01
2017-07-09T02:20:39.209Z,992.07
2017-07-09T02:21:39.242Z,992.04
2017-07-09T02:22:39.271Z,992
2017-07-09T02:23:39.303Z,991.98
2017-07-09T02:24:39.332Z,991.97
2017-07-09T02:25:39.364Z,991.96
2017-07-09T02:26:39.392Z,991.94
2017-07-09T02:27:39.422Z,991.96
2017-07-09T02:28:39.456Z,992
2017-07-09T02:29:39.489Z,992.02
2017-07-09T02:30:39.516Z,992.01
2017-07-09T02:31:39.548Z,991.99
2017-07-09T02:32:39.579Z,991.99
2017-07-09T02:33:39.613Z,991.97
2017-07-09T02:34:39.641Z,991.95
2017-07-09T02:35:39.668Z,991.97
2017-07-09T02:36:39.702Z,991.95
2017-07-09T02:37:39.735Z,991.97
2017-07-09T02:38:39.764Z,991.98
2017-07-09T02:39:39.796Z,991.98
2017-07-09T02:40:39.825Z,992.02
2017-07-09T02:41:39.859Z,992.03
2017-07-09T02:42:39.888Z,992.03
2017-07-09T02:43:39.916Z,992.03
2017-07-09T02:44:39.949Z,992.03
2017-07-09T02:45:39.978Z,992.03
2017-07-09T02:46:40.011Z,991.99
2017-07-09T02:47:40.040Z,991.98
2017-07-09T02:48:40.070Z,992.02
2017-07-09T02:49:40.101Z,991.96
2017-07-09T02:50:40.134Z,991.96
2017-07-09T02:51:40.163Z,991.93
2017-07-09T02:52:40.194Z,991.9
2017-07-09T02:53:40.228Z,991.9
2017-07-09T02:54:40.258Z,991.9
2017-07-09T02:55:40.286Z,991.89
2017-07-09T02:56:40.320Z,991.91
2017-07-09T02:57:40.347Z,991.92
2017-07-09T02:58:40.381Z,991.94
2017-07-09T02:59:40.410Z,991.96
2017-07-09T03:00:40.443Z,991.96
2017-07-09T03:01:40.472Z,991.99
2017-07-09T03:02:40.496Z,991.94
2017-07-09T03:03:40.535Z,991.88
2017-07-09T03:04:40.567Z,991.87
2017-07-09T03:05:40.595Z,991.84
2017-07-09T03:06:40.619Z,991.88
2017-07-09T03:07:40.656Z,991.87
2017-07-09T03:08:40.686Z,991.87
2017-07-09T03:09:40.718Z,991.87
2017-07-09T03:10:40.746Z,991.89
2017-07-09T03:11:40.778Z,991.86
2017-07-09T03:12:40.808Z,991.85
2017-07-09T03:13:40.836Z,991.82
2017-07-09T03:14:40.871Z,991.83
2017-07-09T03:15:40.903Z,991.79
2017-07-09T03:16:40.932Z,991.74
2017-07-09T03:17:40.964Z,991.76
2017-07-09T03:18:40.991Z,991.76
2017-07-09T03:19:41.022Z,991.76
2017-07-09T03:20:41.055Z,991.78
2017-07-09T03:21:41.084Z,991.74
2017-07-09T03:22:41.117Z,991.69
2017-07-09T03:23:41.145Z,991.66
2017-07-09T03:24:41.179Z,991.7
2017-07-09T03:25:41.208Z,991.66
2017-07-09T03:26:41.244Z,991.61
2017-07-09T03:27:41.271Z,991.64
2017-07-09T03:28:41.300Z,991.64
2017-07-09T03:29:41.333Z,991.64
2017-07-09T03:30:41.363Z,991.63
2017-07-09T03:31:41.392Z,991.61
2017-07-09T03:32:41.421Z,991.59
2017-07-09T03:33:41.454Z,991.62
2017-07-09T03:34:41.487Z,991.6
2017-07-09T03:35:41.516Z,991.6
2017-07-09T03:36:41.548Z,991.57
2017-07-09T03:37:41.580Z,991.55
2017-07-09T03:38:41.607Z,991.55
2017-07-09T03:39:41.640Z,991.56
2017-07-09T03:40:41.667Z,991.51
2017-07-09T03:41:41.701Z,991.49
2017-07-09T03:42:41.730Z,991.45
2017-07-09T03:43:41.761Z,991.44
2017-07-09T03:44:41.790Z,991.4
2017-07-09T03:45:41.819Z,991.4
2017-07-09T03:46:41.852Z,991.33
2017-07-09T03:47:41.886Z,991.33
2017-07-09T03:48:41.915Z,991.37
2017-07-09T03:49:41.944Z,991.39
2017-07-09T03:50:41.977Z,991.43
2017-07-09T03:51:42.005Z,991.4
2017-07-09T03:52:42.037Z,991.37
2017-07-09T03:53:42.067Z,991.36
2017-07-09T03:54:42.100Z,991.34
2017-07-09T03:55:42.124Z,991.32
2017-07-09T03:56:42.161Z,991.29
2017-07-09T03:57:42.182Z,991.3
2017-07-09T03:58:42.219Z,991.34
2017-07-09T03:59:42.251Z,991.31
2017-07-09T04:00:42.282Z,991.31
2017-07-09T04:01:42.314Z,991.29
2017-07-09T04:02:42.343Z,991.27
2017-07-09T04:03:42.372Z,991.21
2017-07-09T04:04:42.404Z,991.26
2017-07-09T04:05:42.433Z,991.22
2017-07-09T04:06:42.466Z,991.2
2017-07-09T04:07:42.498Z,991.2
2017-07-09T04:08:42.530Z,991.19
2017-07-09T04:09:42.558Z,991.22
2017-07-09T04:10:42.595Z,991.19
2017-07-09T04:11:42.618Z,991.19
2017-07-09T04:12:42.649Z,991.21
2017-07-09T04:13:42.680Z,991.21
2017-07-09T04:14:42.709Z,991.2
2017-07-09T04:15:42.740Z,991.2
2017-07-09T04:16:43.070Z,991.21
2017-07-09T04:17:42.804Z,991.21
2017-07-09T04:18:42.833Z,991.23
2017-07-09T04:19:42.861Z,991.25
2017-07-09T04:20:42.894Z,991.24
2017-07-09T04:21:43.218Z,991.26
2017-07-09T04:22:42.955Z,991.27
2017-07-09T04:23:42.980Z,991.27
2017-07-09T04:24:43.018Z,991.21
2017-07-09T04:25:43.042Z,991.26
2017-07-09T04:26:43.325Z,991.23
2017-07-09T04:27:43.107Z,991.22
2017-07-09T04:28:43.137Z,991.26
2017-07-09T04:29:43.165Z,991.24
2017-07-09T04:30:43.199Z,991.2
2017-07-09T04:31:43.231Z,991.24
2017-07-09T04:32:43.259Z,991.22
2017-07-09T04:33:43.290Z,991.21
2017-07-09T04:34:43.321Z,991.22
2017-07-09T04:35:43.350Z,991.22
2017-07-09T04:36:43.384Z,991.22
2017-07-09T04:37:43.408Z,991.22
2017-07-09T04:38:43.440Z,991.26
2017-07-09T04:39:43.474Z,991.27
2017-07-09T04:40:43.507Z,991.26
2017-07-09T04:41:43.535Z,991.26
2017-07-09T04:42:43.568Z,991.29
2017-07-09T04:43:43.597Z,991.27
2017-07-09T04:44:43.626Z,991.28
2017-07-09T04:45:43.656Z,991.28
2017-07-09T04:46:43.692Z,991.31
2017-07-09T04:47:43.722Z,991.31
2017-07-09T04:48:43.752Z,991.28
2017-07-09T04:49:43.778Z,991.31
2017-07-09T04:50:43.809Z,991.34
2017-07-09T04:51:43.840Z,991.35
2017-07-09T04:52:43.873Z,991.33
2017-07-09T04:53:43.902Z,991.37
2017-07-09T04:54:43.929Z,991.37
2017-07-09T04:55:43.965Z,991.36
2017-07-09T04:56:43.991Z,991.38
2017-07-09T04:57:44.026Z,991.34
2017-07-09T04:58:44.054Z,991.41
2017-07-09T04:59:44.092Z,991.39
2017-07-09T05:00:44.115Z,991.39
2017-07-09T05:01:44.143Z,991.37
2017-07-09T05:02:44.176Z,991.37
2017-07-09T05:03:44.205Z,991.34
2017-07-09T05:04:44.238Z,991.31
2017-07-09T05:05:44.267Z,991.32
2017-07-09T05:06:44.300Z,991.32
2017-07-09T05:07:44.329Z,991.29
2017-07-09T05:08:44.358Z,991.29
2017-07-09T05:09:44.390Z,991.29
2017-07-09T05:10:44.419Z,991.27
2017-07-09T05:11:44.454Z,991.27
2017-07-09T05:12:44.479Z,991.25
2017-07-09T05:13:44.510Z,991.24
2017-07-09T05:14:44.542Z,991.21
2017-07-09T05:15:44.575Z,991.17
2017-07-09T05:16:44.604Z,991.18
2017-07-09T05:17:44.633Z,991.16
2017-07-09T05:18:44.665Z,991.13
2017-07-09T05:19:44.695Z,991.08
2017-07-09T05:20:44.727Z,991.09
2017-07-09T05:21:44.754Z,991.09
2017-07-09T05:22:44.785Z,991.1
2017-07-09T05:23:44.820Z,991.12
2017-07-09T05:24:44.847Z,991.07
2017-07-09T05:25:44.880Z,991.09
2017-07-09T05:26:44.908Z,991.13
2017-07-09T05:27:44.941Z,991.11
2017-07-09T05:28:44.970Z,991.13
2017-07-09T05:29:44.999Z,991.12
2017-07-09T05:30:45.033Z,991.09
2017-07-09T05:31:45.068Z,991.13
2017-07-09T05:32:45.093Z,991.11
2017-07-09T05:33:45.126Z,991.15
2017-07-09T05:34:45.155Z,991.17
2017-07-09T05:35:45.180Z,991.21
2017-07-09T05:36:45.213Z,991.23
2017-07-09T05:37:45.245Z,991.2
2017-07-09T05:38:45.279Z,991.24
2017-07-09T05:39:45.307Z,991.26
2017-07-09T05:40:45.336Z,991.22
2017-07-09T05:41:45.369Z,991.2
2017-07-09T05:42:45.398Z,991.19
2017-07-09T05:43:45.426Z,991.18
2017-07-09T05:44:45.460Z,991.2
2017-07-09T05:45:45.484Z,991.22
2017-07-09T05:46:45.517Z,991.24
2017-07-09T05:47:45.551Z,991.22
2017-07-09T05:48:45.579Z,991.21
2017-07-09T05:49:45.611Z,991.18
2017-07-09T05:50:45.639Z,991.17
2017-07-09T05:51:45.674Z,991.15
2017-07-09T05:52:45.702Z,991.14
2017-07-09T05:53:45.731Z,991.15
2017-07-09T05:54:45.763Z,991.13
2017-07-09T05:55:45.791Z,991.13
2017-07-09T05:56:45.827Z,991.12
2017-07-09T05:57:46.104Z,991.11
2017-07-09T05:58:45.887Z,991.12
2017-07-09T05:59:45.919Z,991.15
2017-07-09T06:00:45.948Z,991.11
2017-07-09T06:01:45.977Z,991.1
2017-07-09T06:02:46.255Z,991.11
2017-07-09T06:03:46.039Z,991.11
2017-07-09T06:04:46.069Z,991.1
2017-07-09T06:05:46.097Z,991.09
2017-07-09T06:06:46.140Z,991.12
2017-07-09T06:07:46.410Z,991.11
2017-07-09T06:08:46.190Z,991.11
2017-07-09T06:09:46.222Z,991.08
2017-07-09T06:10:46.252Z,991.08
2017-07-09T06:11:46.281Z,991.03
2017-07-09T06:12:46.311Z,991.05
2017-07-09T06:13:46.343Z,991.05
2017-07-09T06:14:46.370Z,991.12
2017-07-09T06:15:46.405Z,991.07
2017-07-09T06:16:46.433Z,991.1
2017-07-09T06:17:46.462Z,991.12
2017-07-09T06:18:46.495Z,991.17
2017-07-09T06:19:46.524Z,991.16
2017-07-09T06:20:46.556Z,991.19
2017-07-09T06:21:46.585Z,991.18
2017-07-09T06:22:46.618Z,991.17
2017-07-09T06:23:46.647Z,991.2
2017-07-09T06:24:46.682Z,991.21
2017-07-09T06:25:46.709Z,991.23
2017-07-09T06:26:46.742Z,991.23
2017-07-09T06:27:46.767Z,991.23
2017-07-09T06:28:46.800Z,991.26
2017-07-09T06:29:46.832Z,991.28
2017-07-09T06:30:46.861Z,991.28
2017-07-09T06:31:46.893Z,991.24
2017-07-09T06:32:46.923Z,991.24
2017-07-09T06:33:46.956Z,991.27
2017-07-09T06:34:46.980Z,991.28
2017-07-09T06:35:47.013Z,991.32
2017-07-09T06:36:47.046Z,991.34
2017-07-09T06:37:47.075Z,991.34
2017-07-09T06:38:47.113Z,991.34
2017-07-09T06:39:47.135Z,991.34
2017-07-09T06:40:47.169Z,991.37
2017-07-09T06:41:47.200Z,991.34
2017-07-09T06:42:47.232Z,991.35
2017-07-09T06:43:47.261Z,991.39
2017-07-09T06:44:47.294Z,991.4
2017-07-09T06:45:47.323Z,991.4
2017-07-09T06:46:47.351Z,991.36
2017-07-09T06:47:47.384Z,991.35
2017-07-09T06:48:47.412Z,991.35
2017-07-09T06:49:47.445Z,991.36
2017-07-09T06:50:47.469Z,991.37
2017-07-09T06:51:47.507Z,991.42
2017-07-09T06:52:47.536Z,991.38
2017-07-09T06:53:47.563Z,991.43
2017-07-09T06:54:47.593Z,991.43
2017-07-09T06:55:47.625Z,991.43
2017-07-09T06:56:47.659Z,991.42
2017-07-09T06:57:47.687Z,991.47
2017-07-09T06:58:47.720Z,991.47
2017-07-09T06:59:47.749Z,991.46
2017-07-09T07:00:47.782Z,991.46
2017-07-09T07:01:47.811Z,991.43
2017-07-09T07:02:47.839Z,991.47
2017-07-09T07:03:47.875Z,991.48
2017-07-09T07:04:47.900Z,991.43
2017-07-09T07:05:47.930Z,991.48
2017-07-09T07:06:48.027Z,991.48
2017-07-09T07:07:47.995Z,991.49
2017-07-09T07:08:48.020Z,991.43
2017-07-09T07:09:48.052Z,991.48
2017-07-09T07:10:48.086Z,991.46
2017-07-09T07:11:48.115Z,991.44
2017-07-09T07:12:48.152Z,991.41
2017-07-09T07:13:48.181Z,991.4
2017-07-09T07:14:48.212Z,991.41
2017-07-09T07:15:48.238Z,991.39
2017-07-09T07:16:48.269Z,991.41
2017-07-09T07:17:48.303Z,991.4
2017-07-09T07:18:48.336Z,991.38
2017-07-09T07:19:48.363Z,991.44
2017-07-09T07:20:48.394Z,991.4
2017-07-09T07:21:48.423Z,991.41
2017-07-09T07:22:48.452Z,991.42
2017-07-09T07:23:48.484Z,991.41
2017-07-09T07:24:48.520Z,991.38
2017-07-09T07:25:48.543Z,991.42
2017-07-09T07:26:48.572Z,991.44
2017-07-09T07:27:48.615Z,991.41
2017-07-09T07:28:48.636Z,991.42
2017-07-09T07:29:48.671Z,991.38
2017-07-09T07:30:48.699Z,991.37
2017-07-09T07:31:48.728Z,991.35
2017-07-09T07:32:48.760Z,991.3
2017-07-09T07:33:48.842Z,991.29
2017-07-09T07:34:48.822Z,991.29
2017-07-09T07:35:48.855Z,991.3
2017-07-09T07:36:48.884Z,991.3
2017-07-09T07:37:48.912Z,991.26
2017-07-09T07:38:48.939Z,991.25
2017-07-09T07:39:48.978Z,991.24
2017-07-09T07:40:49.008Z,991.26
2017-07-09T07:41:49.036Z,991.24
2017-07-09T07:42:49.069Z,991.24
2017-07-09T07:43:49.097Z,991.2
2017-07-09T07:44:49.130Z,991.22
2017-07-09T07:45:49.159Z,991.22
2017-07-09T07:46:49.193Z,991.19
2017-07-09T07:47:49.222Z,991.17
2017-07-09T07:48:49.253Z,991.17
2017-07-09T07:49:49.282Z,991.2
2017-07-09T07:50:49.313Z,991.15
2017-07-09T07:51:49.345Z,991.14
2017-07-09T07:52:49.381Z,991.13
2017-07-09T07:53:49.406Z,991.11
2017-07-09T07:54:49.439Z,991.12
2017-07-09T07:55:49.468Z,991.07
2017-07-09T07:56:49.499Z,991.06
2017-07-09T07:57:49.529Z,991.05
2017-07-09T07:58:49.558Z,991.06
2017-07-09T07:59:49.592Z,991.09
2017-07-09T08:00:49.623Z,991.09
2017-07-09T08:01:49.665Z,991.14
2017-07-09T08:02:49.682Z,991.13
2017-07-09T08:03:49.714Z,991.13
2017-07-09T08:04:49.738Z,991.1
2017-07-09T08:05:49.777Z,991.09
2017-07-09T08:06:49.804Z,991.04
2017-07-09T08:07:49.837Z,991.04
2017-07-09T08:08:50.117Z,991
2017-07-09T08:09:49.898Z,990.99
2017-07-09T08:10:49.928Z,990.99
2017-07-09T08:11:49.960Z,990.93
2017-07-09T08:12:49.990Z,990.97
2017-07-09T08:13:50.321Z,990.94
2017-07-09T08:14:50.051Z,990.89
2017-07-09T08:15:50.081Z,990.88
2017-07-09T08:16:50.109Z,990.87
2017-07-09T08:17:50.142Z,990.89
2017-07-09T08:18:50.175Z,990.9
2017-07-09T08:19:50.212Z,990.93
2017-07-09T08:20:50.237Z,990.93
2017-07-09T08:21:50.270Z,990.96
2017-07-09T08:22:50.293Z,990.96
2017-07-09T08:23:50.330Z,990.91
2017-07-09T08:24:50.351Z,990.97
2017-07-09T08:25:50.392Z,990.98
2017-07-09T08:26:50.422Z,991
2017-07-09T08:27:50.454Z,990.99
2017-07-09T08:28:50.482Z,990.96
2017-07-09T08:29:50.515Z,990.95
2017-07-09T08:30:50.540Z,990.94
2017-07-09T08:31:50.577Z,990.88
2017-07-09T08:32:50.606Z,990.89
2017-07-09T08:33:50.639Z,990.84
2017-07-09T08:34:50.672Z,990.85
2017-07-09T08:35:50.702Z,990.79
2017-07-09T08:36:50.728Z,990.77
2017-07-09T08:37:50.766Z,990.78
2017-07-09T08:38:50.793Z,990.77
2017-07-09T08:39:50.827Z,990.78
2017-07-09T08:40:50.854Z,990.84
2017-07-09T08:41:50.886Z,990.8
2017-07-09T08:42:50.911Z,990.83
2017-07-09T08:43:50.947Z,990.85
2017-07-09T08:44:50.973Z,990.85
2017-07-09T08:45:51.011Z,990.88
2017-07-09T08:46:51.042Z,990.89
2017-07-09T08:47:51.067Z,990.85
2017-07-09T08:48:51.096Z,990.78
2017-07-09T08:49:51.133Z,990.79
2017-07-09T08:50:51.160Z,990.75
2017-07-09T08:51:51.194Z,990.74
2017-07-09T08:52:51.220Z,990.69
2017-07-09T08:53:51.256Z,990.69
2017-07-09T08:54:51.285Z,990.67
2017-07-09T08:55:51.318Z,990.63
2017-07-09T08:56:51.347Z,990.68
2017-07-09T08:57:51.379Z,990.66
2017-07-09T08:58:51.408Z,990.7
2017-07-09T08:59:51.441Z,990.7
2017-07-09T09:00:51.477Z,990.7
2017-07-09T09:01:51.503Z,990.67
2017-07-09T09:02:51.536Z,990.7
2017-07-09T09:03:51.565Z,990.71
2017-07-09T09:04:51.600Z,990.74
2017-07-09T09:05:51.622Z,990.74
2017-07-09T09:06:51.660Z,990.74
2017-07-09T09:07:51.689Z,990.77
2017-07-09T09:08:51.721Z,990.75
2017-07-09T09:09:51.747Z,990.74
2017-07-09T09:10:51.780Z,990.72
2017-07-09T09:11:51.811Z,990.73
2017-07-09T09:12:51.844Z,990.7
2017-07-09T09:13:51.872Z,990.66
2017-07-09T09:14:51.902Z,990.65
2017-07-09T09:15:51.936Z,990.64
2017-07-09T09:16:51.967Z,990.64
2017-07-09T09:17:52.001Z,990.63
2017-07-09T09:18:52.026Z,990.61
2017-07-09T09:19:52.062Z,990.6
2017-07-09T09:20:52.091Z,990.6
2017-07-09T09:21:52.122Z,990.58
2017-07-09T09:22:52.148Z,990.56
2017-07-09T09:23:52.185Z,990.58
2017-07-09T09:24:52.218Z,990.56
2017-07-09T09:25:52.247Z,990.53
2017-07-09T09:26:52.280Z,990.52
2017-07-09T09:27:52.304Z,990.52
2017-07-09T09:28:52.337Z,990.5
2017-07-09T09:29:52.371Z,990.48
2017-07-09T09:30:52.403Z,990.41
2017-07-09T09:31:52.434Z,990.43
2017-07-09T09:32:52.466Z,990.39
2017-07-09T09:33:52.494Z,990.4
2017-07-09T09:34:52.528Z,990.4
2017-07-09T09:35:52.556Z,990.39
2017-07-09T09:36:52.589Z,990.39
2017-07-09T09:37:52.623Z,990.36
2017-07-09T09:38:52.650Z,990.36
2017-07-09T09:39:52.683Z,990.36
2017-07-09T09:40:52.711Z,990.36
2017-07-09T09:41:52.750Z,990.36
2017-07-09T09:42:52.774Z,990.33
2017-07-09T09:43:52.807Z,990.36
2017-07-09T09:44:53.137Z,990.34
2017-07-09T09:45:52.871Z,990.36
2017-07-09T09:46:52.902Z,990.32
2017-07-09T09:47:52.933Z,990.35
2017-07-09T09:48:52.967Z,990.38
2017-07-09T09:49:53.249Z,990.4
2017-07-09T09:50:53.082Z,990.4
2017-07-09T09:51:53.056Z,990.38
2017-07-09T09:52:53.086Z,990.4
2017-07-09T09:53:53.123Z,990.45
2017-07-09T09:54:53.409Z,990.49
2017-07-09T09:55:53.185Z,990.47
2017-07-09T09:56:53.215Z,990.49
2017-07-09T09:57:53.246Z,990.48
2017-07-09T09:58:53.273Z,990.5
2017-07-09T09:59:53.321Z,990.48
2017-07-09T10:00:53.343Z,990.51
2017-07-09T10:01:53.370Z,990.51
2017-07-09T10:02:53.404Z,990.48
2017-07-09T10:03:53.432Z,990.49
2017-07-09T10:04:53.464Z,990.49
2017-07-09T10:05:53.489Z,990.48
2017-07-09T10:06:53.526Z,990.47
2017-07-09T10:07:53.559Z,990.47
2017-07-09T10:08:53.583Z,990.48
2017-07-09T10:09:53.621Z,990.45
2017-07-09T10:10:53.649Z,990.44
2017-07-09T10:11:53.681Z,990.46
2017-07-09T10:12:53.710Z,990.51
2017-07-09T10:13:53.744Z,990.5
2017-07-09T10:14:53.777Z,990.55
2017-07-09T10:15:53.805Z,990.53
2017-07-09T10:16:53.837Z,990.51
2017-07-09T10:17:53.867Z,990.52
2017-07-09T10:19:53.933Z,990.53
2017-07-09T10:20:53.962Z,990.53
2017-07-09T10:21:53.990Z,990.53
2017-07-09T10:22:54.025Z,990.55
2017-07-09T10:23:54.057Z,990.55
2017-07-09T10:24:54.090Z,990.55
2017-07-09T10:25:54.117Z,990.5
2017-07-09T10:26:54.147Z,990.54
2017-07-09T10:27:54.182Z,990.58
2017-07-09T10:28:54.214Z,990.55
2017-07-09T10:29:54.243Z,990.55
2017-07-09T10:30:54.274Z,990.57
2017-07-09T10:31:54.319Z,990.52
2017-07-09T10:32:54.342Z,990.56
2017-07-09T10:33:54.371Z,990.55
2017-07-09T10:34:54.402Z,990.5
2017-07-09T10:35:54.435Z,990.5
2017-07-09T10:36:54.463Z,990.52
2017-07-09T10:37:54.497Z,990.47
2017-07-09T10:38:54.528Z,990.47
2017-07-09T10:39:54.552Z,990.49
2017-07-09T10:40:54.592Z,990.41
2017-07-09T10:41:54.623Z,990.45
2017-07-09T10:42:54.652Z,990.39
2017-07-09T10:43:54.682Z,990.39
2017-07-09T10:44:54.722Z,990.38
2017-07-09T10:45:55.003Z,990.35
2017-07-09T10:46:54.776Z,990.36
2017-07-09T10:47:54.809Z,990.35
2017-07-09T10:48:54.842Z,990.3
2017-07-09T10:49:54.873Z,990.34
2017-07-09T10:50:55.159Z,990.31
2017-07-09T10:51:54.936Z,990.36
2017-07-09T10:52:54.969Z,990.34
2017-07-09T10:53:55.002Z,990.31
2017-07-09T10:54:55.031Z,990.32
2017-07-09T10:55:55.316Z,990.28
2017-07-09T10:56:55.096Z,990.28
2017-07-09T10:57:55.124Z,990.26
2017-07-09T10:58:55.156Z,990.26
2017-07-09T10:59:55.191Z,990.29
2017-07-09T11:00:55.219Z,990.26
2017-07-09T11:01:55.254Z,990.26
2017-07-09T11:02:55.286Z,990.25
2017-07-09T11:03:55.314Z,990.26
2017-07-09T11:04:55.348Z,990.28
2017-07-09T11:05:55.382Z,990.26
2017-07-09T11:06:55.413Z,990.24
2017-07-09T11:07:55.445Z,990.23
2017-07-09T11:08:55.473Z,990.23
2017-07-09T11:09:55.511Z,990.21
2017-07-09T11:10:55.542Z,990.22
2017-07-09T11:11:55.571Z,990.22
2017-07-09T11:12:55.606Z,990.21
2017-07-09T11:13:55.640Z,990.25
2017-07-09T11:14:55.670Z,990.2
2017-07-09T11:15:55.702Z,990.2
2017-07-09T11:16:55.729Z,990.25
2017-07-09T11:17:55.765Z,990.17
2017-07-09T11:18:55.796Z,990.17
2017-07-09T11:19:55.826Z,990.21
2017-07-09T11:20:55.855Z,990.23
2017-07-09T11:21:55.890Z,990.24
2017-07-09T11:22:55.925Z,990.22
2017-07-09T11:23:55.955Z,990.25
2017-07-09T11:24:55.983Z,990.26
2017-07-09T11:25:56.011Z,990.24
2017-07-09T11:26:56.050Z,990.22
2017-07-09T11:27:56.082Z,990.26
2017-07-09T11:28:56.109Z,990.25
2017-07-09T11:29:56.144Z,990.2
2017-07-09T11:30:56.178Z,990.24
2017-07-09T11:31:56.210Z,990.22
2017-07-09T11:32:56.239Z,990.21
2017-07-09T11:33:56.272Z,990.26
2017-07-09T11:34:56.304Z,990.28
2017-07-09T11:35:56.332Z,990.26
2017-07-09T11:36:56.367Z,990.3
2017-07-09T11:37:56.399Z,990.33
2017-07-09T11:38:56.435Z,990.31
2017-07-09T11:39:56.465Z,990.31
2017-07-09T11:40:56.494Z,990.29
2017-07-09T11:41:56.524Z,990.31
2017-07-09T11:42:56.560Z,990.35
2017-07-09T11:43:56.594Z,990.35
2017-07-09T11:44:56.622Z,990.38
2017-07-09T11:45:56.654Z,990.4
2017-07-09T11:46:56.687Z,990.41
2017-07-09T11:47:56.720Z,990.4
2017-07-09T11:48:56.750Z,990.42
2017-07-09T11:49:56.780Z,990.41
2017-07-09T11:50:56.813Z,990.4
2017-07-09T11:51:56.847Z,990.37
2017-07-09T11:52:56.873Z,990.38
2017-07-09T11:53:56.911Z,990.37
2017-07-09T11:54:56.937Z,990.35
2017-07-09T11:55:56.973Z,990.33
2017-07-09T11:56:57.003Z,990.31
2017-07-09T11:57:57.037Z,990.33
2017-07-09T11:58:57.069Z,990.32
2017-07-09T11:59:57.098Z,990.33
2017-07-09T12:00:57.131Z,990.31
2017-07-09T12:01:57.164Z,990.27
2017-07-09T12:02:57.196Z,990.3
2017-07-09T12:03:57.225Z,990.33
2017-07-09T12:04:57.253Z,990.29
2017-07-09T12:05:57.290Z,990.33
2017-07-09T12:06:57.324Z,990.29
2017-07-09T12:07:57.357Z,990.31
2017-07-09T12:08:57.385Z,990.29
2017-07-09T12:09:57.420Z,990.27
2017-07-09T12:10:57.447Z,990.29
2017-07-09T12:11:57.484Z,990.3
2017-07-09T12:12:57.516Z,990.28
2017-07-09T12:13:57.547Z,990.27
2017-07-09T12:14:57.578Z,990.25
2017-07-09T12:15:57.607Z,990.24
2017-07-09T12:16:57.643Z,990.27
2017-07-09T12:17:57.673Z,990.23
2017-07-09T12:18:57.706Z,990.26
2017-07-09T12:19:57.734Z,990.27
2017-07-09T12:20:57.772Z,990.21
2017-07-09T12:21:57.804Z,990.21
2017-07-09T12:22:57.830Z,990.29
2017-07-09T12:23:57.861Z,990.32
2017-07-09T12:24:57.899Z,990.22
2017-07-09T12:25:57.930Z,990.22
2017-07-09T12:26:57.960Z,990.25
2017-07-09T12:27:57.993Z,990.35
2017-07-09T12:28:58.028Z,990.24
2017-07-09T12:29:58.062Z,990.12
2017-07-09T12:30:58.091Z,990.1
2017-07-09T12:31:58.126Z,990.13
2017-07-09T12:32:58.158Z,990.13